createdAt,value
2018-05-16T00:02:25.658Z,7.60
2018-05-16T00:04:55.321Z,6.57
2018-05-16T00:07:23.700Z,7.00
2018-05-16T00:09:51.937Z,6.63
2018-05-16T00:12:20.243Z,6.53
2018-05-16T00:14:48.531Z,6.70
2018-05-16T00:17:16.804Z,6.30
2018-05-16T00:19:45.098Z,6.50
2018-05-16T00:22:13.375Z,6.95
2018-05-16T00:24:41.671Z,6.40
2018-05-16T00:27:09.973Z,7.05
2018-05-16T00:29:38.310Z,7.10
2018-05-16T00:32:06.537Z,7.03
2018-05-16T00:34:35.027Z,6.70
2018-05-16T00:37:04.288Z,6.32
2018-05-16T00:39:32.666Z,6.80
2018-05-16T00:42:01.267Z,6.40
2018-05-16T00:44:29.554Z,6.43
2018-05-16T00:46:57.842Z,7.20
2018-05-16T00:49:26.186Z,6.57
2018-05-16T00:51:54.499Z,6.97
2018-05-16T00:54:22.766Z,6.87
2018-05-16T00:56:51.122Z,6.53
2018-05-16T00:59:19.358Z,6.97
2018-05-16T01:01:47.679Z,6.77
2018-05-16T01:04:16.006Z,7.30
2018-05-16T01:06:44.383Z,6.77
2018-05-16T01:09:12.637Z,6.80
2018-05-16T01:11:40.943Z,6.67
2018-05-16T01:14:09.221Z,6.70
2018-05-16T01:16:37.535Z,7.20
2018-05-16T01:19:05.849Z,6.77
2018-05-16T01:21:34.174Z,7.50
2018-05-16T01:24:02.475Z,6.63
2018-05-16T01:26:30.808Z,6.50
2018-05-16T01:28:59.085Z,6.70
2018-05-16T01:31:27.386Z,7.47
2018-05-16T01:33:55.652Z,6.90
2018-05-16T01:36:24.918Z,7.87
2018-05-16T01:38:53.218Z,7.13
2018-05-16T01:41:21.502Z,7.45
2018-05-16T01:43:50.695Z,7.30
2018-05-16T01:46:18.973Z,7.25
2018-05-16T01:51:49.528Z,7.87
2018-05-16T01:54:17.905Z,7.30
2018-05-16T01:56:47.115Z,7.57
2018-05-16T01:59:15.435Z,7.67
2018-05-16T02:01:43.706Z,8.10
2018-05-16T02:04:12.019Z,7.12
2018-05-16T02:06:40.295Z,7.83
2018-05-16T02:09:08.602Z,8.40
2018-05-16T02:11:36.892Z,8.32
2018-05-16T02:14:05.741Z,8.40
2018-05-16T02:16:34.016Z,8.93
2018-05-16T02:19:02.347Z,8.80
2018-05-16T02:21:30.659Z,8.03
2018-05-16T02:23:58.921Z,8.70
2018-05-16T02:26:27.221Z,9.17
2018-05-16T02:28:55.532Z,9.40
2018-05-16T02:31:23.857Z,9.18
2018-05-16T02:33:52.158Z,9.40
2018-05-16T02:36:20.470Z,9.20
2018-05-16T02:38:48.746Z,9.07
2018-05-16T02:41:17.058Z,9.10
2018-05-16T02:43:45.374Z,9.30
2018-05-16T02:46:13.674Z,8.70
2018-05-16T02:48:41.966Z,10.57
2018-05-16T02:51:10.324Z,10.20
2018-05-16T02:53:38.639Z,10.50
2018-05-16T02:56:07.854Z,10.40
2018-05-16T02:58:36.105Z,11.87
2018-05-16T03:01:04.428Z,11.67
2018-05-16T03:03:32.711Z,11.73
2018-05-16T03:06:01.018Z,14.90
2018-05-16T03:08:29.297Z,11.93
2018-05-16T03:10:57.594Z,12.83
2018-05-16T03:13:25.874Z,12.93
2018-05-16T03:15:54.190Z,12.73
2018-05-16T03:18:22.517Z,13.23
2018-05-16T03:20:50.773Z,14.33
2018-05-16T03:23:19.074Z,14.00
2018-05-16T03:25:47.337Z,14.10
2018-05-16T03:28:15.642Z,14.52
2018-05-16T03:30:43.914Z,15.00
2018-05-16T03:33:12.245Z,13.85
2018-05-16T03:35:40.536Z,15.37
2018-05-16T03:38:08.832Z,14.50
2018-05-16T03:40:37.093Z,15.27
2018-05-16T03:43:05.398Z,15.40
2018-05-16T03:45:33.703Z,14.20
2018-05-16T03:48:03.136Z,14.87
2018-05-16T03:50:31.426Z,14.20
2018-05-16T03:52:59.714Z,15.93
2018-05-16T03:55:27.999Z,15.27
2018-05-16T04:01:07.054Z,14.27
2018-05-16T04:03:47.742Z,15.43
2018-05-16T04:06:16.010Z,14.77
2018-05-16T04:08:44.375Z,15.13
2018-05-16T04:11:12.668Z,14.80
2018-05-16T04:13:41.235Z,14.40
2018-05-16T04:16:09.502Z,14.30
2018-05-16T04:18:37.792Z,12.70
2018-05-16T04:21:06.099Z,13.57
2018-05-16T04:23:34.811Z,14.47
2018-05-16T04:26:03.154Z,14.50
2018-05-16T04:28:31.474Z,15.50
2018-05-16T04:30:59.807Z,15.57
2018-05-16T04:33:28.119Z,15.80
2018-05-16T04:35:56.471Z,16.30
2018-05-16T04:38:24.770Z,16.67
2018-05-16T04:40:53.105Z,16.65
2018-05-16T04:43:21.395Z,16.37
2018-05-16T04:45:49.966Z,15.83
2018-05-16T04:48:18.223Z,15.60
2018-05-16T04:50:46.790Z,15.10
2018-05-16T04:53:15.109Z,17.48
2018-05-16T04:55:43.467Z,16.87
2018-05-16T04:58:11.754Z,16.07
2018-05-16T05:00:40.095Z,16.02
2018-05-16T05:03:08.401Z,16.57
2018-05-16T05:05:36.956Z,17.70
2018-05-16T05:08:05.566Z,16.47
2018-05-16T05:10:33.858Z,17.20
2018-05-16T05:13:02.197Z,17.17
2018-05-16T05:15:30.467Z,16.37
2018-05-16T05:17:58.751Z,17.23
2018-05-16T05:20:27.873Z,15.83
2018-05-16T05:22:56.177Z,16.20
2018-05-16T05:25:24.541Z,15.43
2018-05-16T05:27:52.910Z,15.40
2018-05-16T05:30:21.312Z,17.23
2018-05-16T05:32:49.575Z,16.00
2018-05-16T05:35:17.880Z,16.92
2018-05-16T05:37:46.220Z,16.90
2018-05-16T05:40:14.509Z,16.50
2018-05-16T05:42:42.865Z,16.95
2018-05-16T05:45:11.274Z,16.15
2018-05-16T05:47:39.601Z,16.10
2018-05-16T05:50:07.890Z,16.23
2018-05-16T05:52:36.253Z,16.17
2018-05-16T05:55:04.653Z,16.20
2018-05-16T05:57:33.023Z,16.00
2018-05-16T06:00:01.674Z,14.38
2018-05-16T06:02:34.950Z,15.00
2018-05-16T06:05:03.642Z,13.47
2018-05-16T06:07:32.165Z,14.37
2018-05-16T06:10:00.459Z,12.73
2018-05-16T06:12:30.694Z,12.77
2018-05-16T06:14:58.978Z,11.70
2018-05-16T06:17:27.261Z,11.67
2018-05-16T06:19:55.632Z,11.60
2018-05-16T06:22:24.238Z,13.07
2018-05-16T06:24:52.540Z,11.40
2018-05-16T06:27:20.904Z,12.40
2018-05-16T06:29:49.302Z,11.70
2018-05-16T06:32:17.548Z,11.88
2018-05-16T06:34:45.851Z,11.07
2018-05-16T06:37:14.173Z,11.07
2018-05-16T06:39:42.612Z,11.27
2018-05-16T06:42:10.966Z,10.75
2018-05-16T06:44:39.298Z,11.80
2018-05-16T06:47:07.612Z,10.67
2018-05-16T06:49:35.993Z,10.93
2018-05-16T06:52:05.039Z,8.15
2018-05-16T06:54:33.394Z,8.80
2018-05-16T06:57:01.696Z,7.33
2018-05-16T06:59:29.971Z,7.13
2018-05-16T07:01:58.314Z,6.13
2018-05-16T07:04:26.612Z,10.83
2018-05-16T07:06:54.957Z,6.83
2018-05-16T07:09:23.236Z,6.43
2018-05-16T07:11:51.570Z,11.88
2018-05-16T07:14:19.849Z,5.77
2018-05-16T07:16:48.194Z,5.40
2018-05-16T07:19:16.471Z,5.30
2018-05-16T07:21:44.790Z,5.67
2018-05-16T07:24:13.062Z,5.70
2018-05-16T07:26:41.375Z,5.20
2018-05-16T07:29:09.671Z,6.35
2018-05-16T07:31:37.994Z,5.17
2018-05-16T07:34:06.276Z,5.30
2018-05-16T07:36:34.582Z,5.70
2018-05-16T07:39:02.882Z,5.40
2018-05-16T07:41:31.177Z,5.47
2018-05-16T07:44:00.326Z,4.73
2018-05-16T07:46:28.608Z,4.47
2018-05-16T07:48:56.911Z,3.93
2018-05-16T07:51:26.920Z,4.47
2018-05-16T07:53:55.288Z,4.30
2018-05-16T07:56:23.657Z,4.30
2018-05-16T07:58:51.998Z,5.70
2018-05-16T08:01:20.268Z,4.18
2018-05-16T08:03:48.594Z,4.43
2018-05-16T08:06:16.879Z,4.97
2018-05-16T08:08:45.247Z,5.30
2018-05-16T08:11:13.543Z,4.45
2018-05-16T08:13:41.953Z,5.35
2018-05-16T08:16:10.261Z,4.12
2018-05-16T08:18:38.568Z,5.78
2018-05-16T08:21:06.855Z,4.10
2018-05-16T08:23:35.165Z,6.40
2018-05-16T08:26:03.431Z,4.40
2018-05-16T08:28:31.709Z,3.90
2018-05-16T08:31:00.097Z,4.00
2018-05-16T08:33:28.371Z,3.80
2018-05-16T08:35:56.680Z,3.60
2018-05-16T08:38:24.954Z,4.00
2018-05-16T08:40:53.273Z,3.80
2018-05-16T08:43:21.546Z,3.80
2018-05-16T08:45:49.941Z,3.47
2018-05-16T08:48:18.231Z,6.82
2018-05-16T08:50:46.522Z,3.70
2018-05-16T08:53:14.893Z,3.62
2018-05-16T08:55:43.203Z,3.40
2018-05-16T08:58:12.142Z,3.92
2018-05-16T09:00:40.515Z,4.30
2018-05-16T09:03:08.810Z,4.20
2018-05-16T09:05:37.178Z,3.77
2018-05-16T09:08:05.444Z,3.93
2018-05-16T09:10:33.790Z,3.10
2018-05-16T09:13:02.533Z,2.93
2018-05-16T09:15:30.852Z,3.97
2018-05-16T09:17:59.178Z,4.37
2018-05-16T09:20:27.449Z,3.10
2018-05-16T09:22:55.958Z,3.50
2018-05-16T09:25:24.425Z,3.60
2018-05-16T09:27:52.782Z,4.50
2018-05-16T09:30:21.098Z,3.77
2018-05-16T09:32:49.415Z,4.33
2018-05-16T09:35:17.718Z,3.62
2018-05-16T09:37:46.021Z,4.43
2018-05-16T09:40:14.514Z,3.80
2018-05-16T09:42:42.698Z,3.80
2018-05-16T09:45:11.004Z,4.43
2018-05-16T09:47:40.074Z,4.40
2018-05-16T09:50:08.342Z,4.77
2018-05-16T09:52:36.706Z,4.53
2018-05-16T09:55:05.266Z,4.80
2018-05-16T09:57:33.593Z,4.43
2018-05-16T10:00:01.928Z,4.70
2018-05-16T10:02:30.196Z,4.23
2018-05-16T10:04:58.579Z,4.20
2018-05-16T10:07:26.953Z,3.70
2018-05-16T10:09:55.521Z,4.23
2018-05-16T10:12:23.938Z,4.27
2018-05-16T10:14:52.214Z,4.50
2018-05-16T10:17:20.551Z,4.00
2018-05-16T10:19:48.858Z,6.60
2018-05-16T10:22:17.177Z,4.53
2018-05-16T10:24:48.961Z,4.60
2018-05-16T10:27:17.286Z,4.93
2018-05-16T10:29:45.598Z,3.63
2018-05-16T10:32:13.899Z,4.85
2018-05-16T10:34:42.219Z,4.47
2018-05-16T10:37:10.489Z,5.70
2018-05-16T10:39:39.728Z,3.60
2018-05-16T10:42:09.032Z,4.00
2018-05-16T10:44:37.323Z,4.40
2018-05-16T10:47:05.603Z,4.50
2018-05-16T10:49:33.944Z,4.13
2018-05-16T10:52:02.523Z,3.77
2018-05-16T10:54:30.880Z,4.80
2018-05-16T10:56:59.223Z,4.03
2018-05-16T10:59:27.537Z,4.50
2018-05-16T11:01:55.832Z,3.90
2018-05-16T11:04:24.111Z,3.90
2018-05-16T11:06:52.399Z,3.80
2018-05-16T11:09:20.728Z,4.00
2018-05-16T11:11:49.037Z,4.00
2018-05-16T11:14:17.314Z,3.85
2018-05-16T11:16:45.610Z,3.43
2018-05-16T11:19:13.903Z,4.27
2018-05-16T11:21:42.895Z,4.10
2018-05-16T11:24:11.233Z,4.12
2018-05-16T11:26:39.587Z,5.83
2018-05-16T11:29:07.890Z,3.67
2018-05-16T11:31:36.168Z,5.10
2018-05-16T11:34:04.501Z,5.20
2018-05-16T11:36:32.827Z,4.20
2018-05-16T11:39:01.905Z,4.67
2018-05-16T11:41:30.205Z,4.90
2018-05-16T11:43:58.513Z,5.07
2018-05-16T11:46:26.850Z,4.33
2018-05-16T11:48:55.232Z,5.90
2018-05-16T11:51:23.517Z,4.27
2018-05-16T11:53:52.064Z,4.72
2018-05-16T11:56:20.817Z,4.55
2018-05-16T11:58:49.307Z,4.73
2018-05-16T12:01:18.080Z,4.22
2018-05-16T12:03:46.544Z,4.77
2018-05-16T12:06:14.918Z,5.22
2018-05-16T12:08:43.278Z,4.40
2018-05-16T12:11:11.710Z,4.20
2018-05-16T12:13:39.978Z,4.07
2018-05-16T12:16:08.840Z,4.20
2018-05-16T12:18:37.192Z,4.30
2018-05-16T12:21:05.496Z,4.20
2018-05-16T12:23:34.112Z,4.13
2018-05-16T12:26:02.368Z,4.13
2018-05-16T12:28:30.737Z,4.00
2018-05-16T12:31:00.003Z,4.00
2018-05-16T12:33:28.326Z,4.17
2018-05-16T12:35:57.582Z,4.30
2018-05-16T12:38:25.897Z,4.63
2018-05-16T12:40:54.183Z,4.40
2018-05-16T12:43:37.208Z,4.57
2018-05-16T12:46:05.493Z,4.90
2018-05-16T12:48:33.757Z,4.18
2018-05-16T12:51:02.046Z,4.33
2018-05-16T12:53:30.401Z,4.63
2018-05-16T12:55:58.800Z,4.73
2018-05-16T12:58:27.089Z,4.73
2018-05-16T13:00:55.432Z,5.25
2018-05-16T13:03:23.736Z,4.70
2018-05-16T13:05:52.152Z,4.03
2018-05-16T13:08:20.483Z,3.83
2018-05-16T13:10:48.815Z,4.10
2018-05-16T13:13:17.123Z,4.35
2018-05-16T13:15:45.510Z,4.30
2018-05-16T13:18:13.815Z,4.03
2018-05-16T13:20:42.181Z,4.20
2018-05-16T13:23:10.442Z,4.87
2018-05-16T13:25:38.730Z,4.00
2018-05-16T13:28:07.128Z,4.00
2018-05-16T13:30:35.418Z,3.97
2018-05-16T13:33:03.746Z,4.33
2018-05-16T13:35:32.277Z,4.60
2018-05-16T13:38:00.508Z,4.43
2018-05-16T13:40:28.790Z,4.23
2018-05-16T13:42:58.011Z,4.07
2018-05-16T13:45:26.282Z,3.90
2018-05-16T13:47:54.648Z,4.32
2018-05-16T13:50:22.942Z,4.20
2018-05-16T13:52:51.325Z,4.50
2018-05-16T13:55:19.711Z,4.30
2018-05-16T13:57:48.128Z,3.70
2018-05-16T14:00:16.792Z,4.32
2018-05-16T14:02:45.040Z,4.30
2018-05-16T14:05:13.389Z,7.20
2018-05-16T14:07:41.681Z,4.90
2018-05-16T14:10:09.988Z,4.28
2018-05-16T14:12:38.498Z,4.50
2018-05-16T14:15:06.805Z,4.47
2018-05-16T14:17:35.271Z,4.30
2018-05-16T14:20:04.258Z,4.27
2018-05-16T14:22:32.990Z,4.23
2018-05-16T14:25:01.413Z,10.30
2018-05-16T14:27:29.983Z,4.80
2018-05-16T14:29:58.289Z,4.30
2018-05-16T14:32:26.786Z,3.53
2018-05-16T14:34:55.143Z,4.97
2018-05-16T14:37:23.456Z,4.00
2018-05-16T14:39:51.748Z,4.73
2018-05-16T14:42:20.149Z,3.97
2018-05-16T14:44:48.422Z,4.40
2018-05-16T14:47:16.780Z,4.32
2018-05-16T14:49:46.526Z,4.07
2018-05-16T14:52:14.875Z,4.12
2018-05-16T14:54:43.133Z,4.00
2018-05-16T14:57:11.518Z,4.97
2018-05-16T14:59:39.846Z,4.70
2018-05-16T15:02:08.156Z,4.40
2018-05-16T15:04:36.503Z,6.60
2018-05-16T15:07:04.837Z,4.30
2018-05-16T15:09:33.159Z,4.80
2018-05-16T15:12:01.589Z,4.80
2018-05-16T15:14:29.915Z,4.83
2018-05-16T15:16:58.201Z,4.47
2018-05-16T15:19:26.597Z,4.50
2018-05-16T15:21:54.904Z,7.67
2018-05-16T15:24:23.221Z,5.03
2018-05-16T15:26:51.526Z,4.10
2018-05-16T15:29:19.848Z,4.77
2018-05-16T15:31:48.142Z,4.77
2018-05-16T15:34:19.271Z,5.40
2018-05-16T15:36:47.562Z,4.30
2018-05-16T15:39:15.946Z,4.43
2018-05-16T15:41:44.349Z,5.20
2018-05-16T15:44:12.795Z,4.80
2018-05-16T15:46:42.091Z,4.40
2018-05-16T15:49:11.554Z,3.95
2018-05-16T15:51:39.886Z,4.43
2018-05-16T15:54:08.170Z,4.53
2018-05-16T15:56:36.553Z,4.00
2018-05-16T15:59:05.034Z,3.50
2018-05-16T16:01:33.319Z,3.57
2018-05-16T16:04:01.597Z,4.60
2018-05-16T16:06:31.106Z,3.77
2018-05-16T16:08:59.384Z,4.00
2018-05-16T16:11:27.739Z,4.13
2018-05-16T16:13:56.194Z,4.30
2018-05-16T16:16:24.468Z,4.20
2018-05-16T16:18:52.800Z,3.90
2018-05-16T16:21:21.102Z,5.10
2018-05-16T16:23:49.373Z,4.77
2018-05-16T16:26:17.906Z,4.37
2018-05-16T16:28:46.423Z,4.70
2018-05-16T16:31:16.234Z,4.60
2018-05-16T16:33:44.509Z,4.27
2018-05-16T16:36:13.978Z,4.93
2018-05-16T16:38:44.328Z,4.20
2018-05-16T16:41:14.199Z,3.90
2018-05-16T16:43:42.816Z,4.60
2018-05-16T16:46:11.781Z,3.90
2018-05-16T16:48:40.097Z,4.50
2018-05-16T16:51:08.359Z,4.87
2018-05-16T16:53:36.777Z,4.30
2018-05-16T16:56:05.067Z,4.63
2018-05-16T16:58:33.390Z,4.40
2018-05-16T17:01:02.153Z,4.70
2018-05-16T17:03:31.716Z,4.70
2018-05-16T17:05:59.955Z,4.90
2018-05-16T17:08:28.263Z,4.60
2018-05-16T17:10:56.724Z,4.20
2018-05-16T17:13:25.039Z,4.13
2018-05-16T17:15:53.361Z,4.40
2018-05-16T17:18:21.685Z,4.50
2018-05-16T17:20:50.019Z,4.40
2018-05-16T17:23:18.312Z,4.20
2018-05-16T17:25:46.676Z,4.40
2018-05-16T17:28:14.969Z,3.83
2018-05-16T17:30:43.364Z,4.43
2018-05-16T17:33:17.666Z,3.90
2018-05-16T17:35:46.773Z,5.57
2018-05-16T17:38:15.304Z,4.35
2018-05-16T17:40:44.158Z,4.47
2018-05-16T17:43:12.707Z,4.47
2018-05-16T17:45:43.609Z,4.00
2018-05-16T17:48:11.904Z,4.10
2018-05-16T17:50:40.256Z,4.50
2018-05-16T17:53:08.699Z,4.47
2018-05-16T17:55:37.123Z,4.95
2018-05-16T17:58:05.536Z,5.00
2018-05-16T18:00:34.271Z,5.50
2018-05-16T18:03:02.933Z,4.50
2018-05-16T18:05:31.241Z,5.13
2018-05-16T18:07:59.675Z,5.07
2018-05-16T18:10:30.033Z,4.57
2018-05-16T18:16:27.373Z,4.77
2018-05-16T18:18:56.076Z,4.40
2018-05-16T18:21:25.685Z,6.23
2018-05-16T18:23:56.474Z,5.80
2018-05-16T18:26:26.610Z,5.30
2018-05-16T18:28:55.409Z,6.83
2018-05-16T18:31:23.794Z,5.70
2018-05-16T18:33:53.604Z,5.07
2018-05-16T18:36:22.074Z,5.07
2018-05-16T18:38:50.576Z,5.80
2018-05-16T18:41:18.907Z,5.12
2018-05-16T18:43:47.249Z,5.40
2018-05-16T18:46:15.917Z,4.65
2018-05-16T18:48:44.310Z,4.80
2018-05-16T18:51:13.302Z,4.82
2018-05-16T18:53:42.649Z,5.00
2018-05-16T18:56:10.965Z,5.26
2018-05-16T18:58:39.308Z,5.13
2018-05-16T19:01:09.553Z,5.40
2018-05-16T19:03:37.936Z,5.73
2018-05-16T19:06:06.363Z,5.37
2018-05-16T19:08:34.762Z,4.60
2018-05-16T19:11:03.179Z,5.10
2018-05-16T19:13:31.523Z,5.87
2018-05-16T19:15:59.843Z,5.70
2018-05-16T19:18:28.135Z,6.27
2018-05-16T19:20:56.713Z,8.20
2018-05-16T19:23:25.027Z,6.37
2018-05-16T19:25:53.436Z,5.97
2018-05-16T19:28:22.209Z,6.00
2018-05-16T19:30:50.607Z,6.03
2018-05-16T19:33:18.914Z,6.20
2018-05-16T19:35:47.333Z,6.80
2018-05-16T19:38:15.693Z,7.35
2018-05-16T19:40:44.130Z,7.77
2018-05-16T19:43:12.467Z,7.53
2018-05-16T19:45:40.834Z,6.50
2018-05-16T19:48:09.145Z,7.77
2018-05-16T19:50:37.450Z,7.93
2018-05-16T19:53:05.777Z,10.27
2018-05-16T19:55:34.542Z,6.10
2018-05-16T19:58:03.011Z,6.83
2018-05-16T20:00:31.321Z,6.17
2018-05-16T20:02:59.723Z,6.50
2018-05-16T20:05:28.087Z,6.03
2018-05-16T20:07:56.455Z,13.53
2018-05-16T20:10:25.018Z,6.47
2018-05-16T20:12:53.311Z,7.07
2018-05-16T20:15:21.711Z,6.90
2018-05-16T20:17:50.026Z,6.87
2018-05-16T20:20:18.459Z,6.50
2018-05-16T20:22:46.822Z,7.07
2018-05-16T20:25:15.192Z,15.50
2018-05-16T20:27:43.552Z,6.57
2018-05-16T20:30:11.893Z,7.07
2018-05-16T20:32:40.190Z,6.70
2018-05-16T20:35:08.477Z,7.80
2018-05-16T20:37:36.788Z,7.40
2018-05-16T20:40:05.080Z,7.30
2018-05-16T20:42:33.444Z,7.30
2018-05-16T20:45:01.751Z,7.07
2018-05-16T20:47:30.101Z,7.53
2018-05-16T20:49:58.407Z,7.20
2018-05-16T20:52:26.679Z,7.77
2018-05-16T20:54:56.714Z,7.63
2018-05-16T20:57:25.016Z,6.80
2018-05-16T20:59:54.034Z,7.07
2018-05-16T21:02:22.314Z,7.70
2018-05-16T21:04:50.597Z,7.30
2018-05-16T21:07:18.914Z,7.80
2018-05-16T21:09:47.572Z,8.23
2018-05-16T21:12:15.982Z,8.60
2018-05-16T21:14:44.572Z,7.10
2018-05-16T21:17:13.473Z,8.02
2018-05-16T21:19:42.138Z,7.30
2018-05-16T21:22:12.826Z,7.68
2018-05-16T21:24:48.305Z,7.83
2018-05-16T21:27:18.454Z,7.45
2018-05-16T21:29:47.311Z,7.93
2018-05-16T21:32:15.934Z,7.62
2018-05-16T21:34:44.299Z,7.50
2018-05-16T21:37:12.588Z,9.70
2018-05-16T21:39:40.994Z,8.30
2018-05-16T21:42:09.359Z,8.18
2018-05-16T21:44:37.707Z,8.57
2018-05-16T21:47:06.084Z,8.10
2018-05-16T21:49:34.524Z,7.30
2018-05-16T21:52:02.941Z,7.10
2018-05-16T21:54:31.275Z,6.87
2018-05-16T21:56:59.598Z,7.30
2018-05-16T21:59:27.969Z,7.27
2018-05-16T22:01:56.520Z,8.10
2018-05-16T22:04:24.843Z,7.33
2018-05-16T22:06:53.166Z,8.83
2018-05-16T22:09:21.591Z,8.33
2018-05-16T22:11:49.917Z,8.27
2018-05-16T22:14:18.205Z,7.97
2018-05-16T22:16:47.406Z,7.80
2018-05-16T22:19:15.668Z,9.40
2018-05-16T22:21:44.046Z,8.63
2018-05-16T22:24:12.576Z,8.00
2018-05-16T22:26:40.872Z,8.10
2018-05-16T22:29:09.180Z,8.73
2018-05-16T22:31:42.984Z,8.80
2018-05-16T22:34:16.996Z,8.27
2018-05-16T22:36:51.727Z,8.47
2018-05-16T22:39:25.799Z,7.82
2018-05-16T22:41:59.613Z,8.53
2018-05-16T22:44:28.877Z,7.90
2018-05-16T22:46:57.179Z,8.10
2018-05-16T22:49:25.621Z,10.32
2018-05-16T22:51:53.897Z,8.43
2018-05-16T22:54:22.221Z,9.43
2018-05-16T22:56:50.488Z,8.93
2018-05-16T22:59:18.858Z,9.48
2018-05-16T23:01:47.147Z,9.13
2018-05-16T23:04:15.455Z,9.27
2018-05-16T23:06:43.736Z,9.70
2018-05-16T23:09:12.071Z,9.60
2018-05-16T23:11:40.347Z,9.52
2018-05-16T23:14:09.311Z,8.80
2018-05-16T23:16:37.650Z,9.43
2018-05-16T23:19:06.708Z,9.23
2018-05-16T23:21:35.034Z,9.50
2018-05-16T23:24:04.362Z,9.27
2018-05-16T23:26:32.662Z,9.57
2018-05-16T23:29:00.954Z,8.17
2018-05-16T23:31:29.267Z,8.33
2018-05-16T23:33:57.588Z,8.30
2018-05-16T23:36:25.966Z,8.53
2018-05-16T23:38:54.257Z,10.63
2018-05-16T23:41:22.553Z,8.30
2018-05-16T23:43:50.852Z,8.60
2018-05-16T23:46:19.844Z,8.65
2018-05-16T23:48:48.127Z,8.30
2018-05-16T23:51:16.440Z,8.45
2018-05-16T23:53:44.715Z,9.23
2018-05-16T23:56:13.027Z,9.32
2018-05-16T23:58:41.320Z,9.20
